Time,TemperatureF,DewpointF,PressureIn,WindDirection,WindDirectionDegrees,WindSpeedMPH,WindSpeedGustMPH,Humidity,HourlyPrecipIn,Conditions,Clouds,dailyrainin,SoftwareType,DateUTC
2013-01-26 00:00:00,3.0,1.0,30.06,ESE,112,0.0,0.0,91,0.00,-SN,,0.00,WeatherDisplay:10.37,2013-01-26 05:00:00,
2013-01-26 00:01:00,3.0,1.0,30.06,ESE,112,0.0,0.0,91,0.00,-SN,,0.00,WeatherDisplay:10.37,2013-01-26 05:01:00,
2013-01-26 00:02:00,3.0,1.0,30.06,ESE,112,0.0,0.0,91,0.00,-SN,,0.00,WeatherDisplay:10.37,2013-01-26 05:02:00,
2013-01-26 00:07:00,3.2,1.4,30.07,ESE,112,0.0,0.0,92,0.00,-SN,,0.00,WeatherDisplay:10.37,2013-01-26 05:07:00,
2013-01-26 00:12:00,3.0,1.2,30.07,ESE,112,0.0,0.0,92,0.00,-SN,,0.00,WeatherDisplay:10.37,2013-01-26 05:12:00,
2013-01-26 00:17:00,2.8,0.8,30.07,ESE,112,0.0,0.0,91,0.00,-SN,,0.00,WeatherDisplay:10.37,2013-01-26 05:17:00,
2013-01-26 00:22:00,2.7,0.7,30.07,ESE,112,1.0,1.1,91,0.00,-SN,,0.00,WeatherDisplay:10.37,2013-01-26 05:22:00,
2013-01-26 00:27:00,2.3,0.3,30.08,ESE,112,0.0,0.0,91,0.00,-SN,,0.00,WeatherDisplay:10.37,2013-01-26 05:27:00,
2013-01-26 00:32:00,2.1,-0.2,30.08,ESE,112,0.0,0.0,90,0.00,-SN,,0.00,WeatherDisplay:10.37,2013-01-26 05:32:00,
2013-01-26 00:37:00,1.9,-0.4,30.08,ESE,112,0.0,0.0,90,0.00,-SN,,0.00,WeatherDisplay:10.37,2013-01-26 05:37:00,
2013-01-26 00:42:00,1.9,-0.4,30.07,ESE,112,0.0,0.0,90,0.00,-SN,,0.00,WeatherDisplay:10.37,2013-01-26 05:42:00,
2013-01-26 00:47:00,1.6,-0.7,30.07,ESE,112,0.0,0.0,90,0.00,-SN,,0.00,WeatherDisplay:10.37,2013-01-26 05:47:00,
2013-01-26 00:52:00,1.4,-0.9,30.08,ESE,112,0.0,0.0,90,0.00,-SN,,0.00,WeatherDisplay:10.37,2013-01-26 05:52:00,
2013-01-26 00:57:00,1.4,-0.6,30.08,ESE,112,0.0,0.0,91,0.00,-SN,,0.00,WeatherDisplay:10.37,2013-01-26 05:57:00,
2013-01-26 01:02:00,1.4,-0.6,30.08,ESE,112,0.0,0.0,91,0.00,-SN,,0.00,WeatherDisplay:10.37,2013-01-26 06:02:00,
2013-01-26 01:07:00,1.2,-0.8,30.08,ESE,112,0.0,0.0,91,0.00,-SN,,0.00,WeatherDisplay:10.37,2013-01-26 06:07:00,
2013-01-26 01:12:00,1.0,-1.0,30.08,ESE,112,0.0,0.0,91,0.00,-SN,,0.00,WeatherDisplay:10.37,2013-01-26 06:12:00,
2013-01-26 01:17:00,1.0,-1.0,30.08,ESE,112,1.7,2.3,91,0.00,-SN,,0.00,WeatherDisplay:10.37,2013-01-26 06:17:00,
2013-01-26 01:22:00,1.0,-1.0,30.08,ESE,112,1.6,1.6,91,0.00,-SN,,0.00,WeatherDisplay:10.37,2013-01-26 06:22:00,
2013-01-26 01:27:00,0.7,-1.3,30.08,ESE,112,0.0,0.0,91,0.00,-SN,,0.00,WeatherDisplay:10.37,2013-01-26 06:27:00,
2013-01-26 01:32:00,0.9,-1.1,30.08,ESE,112,1.5,1.7,91,0.00,-SN,,0.00,WeatherDisplay:10.37,2013-01-26 06:32:00,
2013-01-26 01:37:00,0.9,-1.1,30.08,ESE,112,1.4,1.7,91,0.00,-SN,,0.00,WeatherDisplay:10.37,2013-01-26 06:37:00,
2013-01-26 01:42:00,1.4,-0.6,30.08,ESE,112,2.4,2.4,91,0.00,-SN,,0.00,WeatherDisplay:10.37,2013-01-26 06:42:00,
2013-01-26 01:47:00,1.9,-0.1,30.08,ESE,112,1.7,2.3,91,0.00,-SN,,0.00,WeatherDisplay:10.37,2013-01-26 06:47:00,
2013-01-26 01:52:00,2.3,0.3,30.08,ESE,112,1.8,2.3,91,0.00,-SN,,0.00,WeatherDisplay:10.37,2013-01-26 06:52:00,
2013-01-26 01:57:00,2.5,0.5,30.08,ESE,112,1.0,1.1,91,0.00,-SN,,0.00,WeatherDisplay:10.37,2013-01-26 06:57:00,
2013-01-26 02:02:00,3.0,1.0,30.08,ESE,112,1.3,1.7,91,0.00,-SN,,0.00,WeatherDisplay:10.37,2013-01-26 07:02:00,
2013-01-26 02:07:00,3.6,1.3,30.08,ESE,112,2.3,2.3,90,0.00,-SN,,0.00,WeatherDisplay:10.37,2013-01-26 07:07:00,
2013-01-26 02:12:00,3.6,1.3,30.08,ESE,112,1.8,2.3,90,0.00,-SN,,0.00,WeatherDisplay:10.37,2013-01-26 07:12:00,
2013-01-26 02:17:00,3.7,1.4,30.08,ESE,112,1.9,2.3,90,0.00,-SN,,0.00,WeatherDisplay:10.37,2013-01-26 07:17:00,
2013-01-26 02:22:00,3.7,1.4,30.08,ESE,112,2.3,2.3,90,0.00,-SN,,0.00,WeatherDisplay:10.37,2013-01-26 07:22:00,
2013-01-26 02:27:00,4.6,2.3,30.08,SE,135,1.9,2.3,90,0.00,-SN,,0.00,WeatherDisplay:10.37,2013-01-26 07:27:00,
2013-01-26 02:32:00,4.8,2.5,30.08,SE,135,1.9,2.2,90,0.00,-SN,,0.00,WeatherDisplay:10.37,2013-01-26 07:32:00,
2013-01-26 02:37:00,5.0,2.7,30.08,SE,135,0.7,2.3,90,0.00,-SN,,0.00,WeatherDisplay:10.37,2013-01-26 07:37:00,
2013-01-26 02:42:00,5.5,3.0,30.08,SE,135,2.4,3.5,89,0.00,-SN,,0.00,WeatherDisplay:10.37,2013-01-26 07:42:00,
2013-01-26 02:47:00,5.7,3.2,30.08,SE,135,2.0,2.7,89,0.00,-SN,,0.00,WeatherDisplay:10.37,2013-01-26 07:47:00,
2013-01-26 02:52:00,5.9,3.4,30.09,SE,135,1.7,2.3,89,0.00,-SN,,0.00,WeatherDisplay:10.37,2013-01-26 07:52:00,
2013-01-26 02:57:00,5.9,3.4,30.09,SE,135,2.0,2.7,89,0.00,-SN,,0.00,WeatherDisplay:10.37,2013-01-26 07:57:00,
2013-01-26 03:02:00,5.9,3.4,30.09,SE,135,2.4,2.4,89,0.00,-SN,,0.00,WeatherDisplay:10.37,2013-01-26 08:02:00,
2013-01-26 03:07:00,6.3,3.8,30.09,SE,135,2.3,2.3,89,0.00,-SN,,0.00,WeatherDisplay:10.37,2013-01-26 08:07:00,
2013-01-26 03:12:00,6.4,3.9,30.09,SE,135,1.5,2.3,89,0.00,-SN,,0.00,WeatherDisplay:10.37,2013-01-26 08:12:00,
2013-01-26 03:17:00,6.6,3.8,30.09,SE,135,2.6,2.6,88,0.00,-SN,,0.00,WeatherDisplay:10.37,2013-01-26 08:17:00,
2013-01-26 03:22:00,6.6,3.8,30.09,SE,135,2.5,2.5,88,0.00,OVC,,0.00,WeatherDisplay:10.37,2013-01-26 08:22:00,
2013-01-26 03:27:00,6.6,3.8,30.09,ESE,112,1.7,1.7,88,0.00,OVC,,0.00,WeatherDisplay:10.37,2013-01-26 08:27:00,
2013-01-26 03:32:00,6.8,4.2,30.09,SE,135,1.8,2.3,89,0.00,OVC,,0.00,WeatherDisplay:10.37,2013-01-26 08:32:00,
2013-01-26 03:37:00,7.0,4.2,30.09,SSE,158,2.2,3.5,88,0.00,OVC,,0.00,WeatherDisplay:10.37,2013-01-26 08:37:00,
2013-01-26 03:42:00,7.2,4.4,30.09,SSE,158,2.9,3.5,88,0.00,OVC,,0.00,WeatherDisplay:10.37,2013-01-26 08:42:00,
2013-01-26 03:47:00,7.2,4.4,30.09,SSE,158,1.8,2.3,88,0.00,OVC,,0.00,WeatherDisplay:10.37,2013-01-26 08:47:00,
2013-01-26 03:52:00,7.2,4.4,30.09,SSE,158,0.2,2.3,88,0.00,OVC,,0.00,WeatherDisplay:10.37,2013-01-26 08:52:00,
2013-01-26 03:57:00,7.3,4.5,30.09,SSE,158,1.7,1.7,88,0.00,OVC,,0.00,WeatherDisplay:10.37,2013-01-26 08:57:00,
2013-01-26 04:02:00,7.5,4.7,30.09,SSE,158,1.8,2.3,88,0.00,OVC,,0.00,WeatherDisplay:10.37,2013-01-26 09:02:00,
2013-01-26 04:07:00,7.5,4.7,30.10,SSE,158,1.9,2.3,88,0.00,OVC,,0.00,WeatherDisplay:10.37,2013-01-26 09:07:00,
2013-01-26 04:12:00,7.5,4.7,30.10,SSE,158,1.6,1.6,88,0.00,-SN,,0.00,WeatherDisplay:10.37,2013-01-26 09:12:00,
2013-01-26 04:17:00,7.5,4.7,30.10,SSE,158,1.9,2.3,88,0.00,-SN,,0.00,WeatherDisplay:10.37,2013-01-26 09:17:00,
2013-01-26 04:22:00,7.7,5.1,30.10,SE,135,2.3,2.7,89,0.00,-SN,,0.00,WeatherDisplay:10.37,2013-01-26 09:22:00,
2013-01-26 04:27:00,7.7,5.1,30.10,SE,135,2.6,2.7,89,0.00,-SN,,0.00,WeatherDisplay:10.37,2013-01-26 09:27:00,
2013-01-26 04:32:00,7.9,5.3,30.10,SE,135,2.6,3.5,89,0.00,-SN,,0.00,WeatherDisplay:10.37,2013-01-26 09:32:00,
2013-01-26 04:37:00,8.1,5.5,30.10,SSE,158,2.3,2.7,89,0.00,-SN,,0.00,WeatherDisplay:10.37,2013-01-26 09:37:00,
2013-01-26 04:42:00,8.1,5.5,30.10,SSE,158,2.0,2.3,89,0.00,-SN,,0.00,WeatherDisplay:10.37,2013-01-26 09:42:00,
2013-01-26 04:47:00,8.1,5.5,30.10,ESE,112,2.1,2.3,89,0.00,-SN,,0.00,WeatherDisplay:10.37,2013-01-26 09:47:00,
2013-01-26 04:52:00,8.1,5.5,30.10,ESE,112,1.3,1.7,89,0.00,-SN,,0.00,WeatherDisplay:10.37,2013-01-26 09:52:00,
2013-01-26 04:57:00,8.1,5.5,30.10,ESE,112,1.8,2.3,89,0.00,-SN,,0.00,WeatherDisplay:10.37,2013-01-26 09:57:00,
2013-01-26 05:02:00,8.1,5.5,30.10,ESE,112,1.5,1.7,89,0.00,-SN,,0.00,WeatherDisplay:10.37,2013-01-26 10:02:00,
2013-01-26 05:07:00,8.4,5.8,30.10,SE,135,2.0,2.3,89,0.00,-SN,,0.00,WeatherDisplay:10.37,2013-01-26 10:07:00,
2013-01-26 05:12:00,8.4,5.8,30.10,SSE,158,1.4,1.7,89,0.00,-SN,,0.00,WeatherDisplay:10.37,2013-01-26 10:12:00,
2013-01-26 05:17:00,8.6,6.0,30.11,SSE,158,2.1,2.3,89,0.00,-SN,,0.00,WeatherDisplay:10.37,2013-01-26 10:17:00,
2013-01-26 05:22:00,8.6,6.0,30.11,SSE,158,1.3,1.3,89,0.00,-SN,,0.00,WeatherDisplay:10.37,2013-01-26 10:22:00,
2013-01-26 05:27:00,8.8,6.2,30.11,SSE,158,1.8,2.2,89,0.00,-SN,,0.00,WeatherDisplay:10.37,2013-01-26 10:27:00,
2013-01-26 05:32:00,9.0,6.4,30.11,SSE,158,0.1,2.3,89,0.00,-SN,,0.00,WeatherDisplay:10.37,2013-01-26 10:32:00,
2013-01-26 05:37:00,9.0,6.4,30.11,SSE,158,0.0,0.0,89,0.00,-SN,,0.00,WeatherDisplay:10.37,2013-01-26 10:37:00,
2013-01-26 05:42:00,9.1,6.5,30.12,SSE,158,0.0,0.0,89,0.00,-SN,,0.00,WeatherDisplay:10.37,2013-01-26 10:42:00,
2013-01-26 05:47:00,9.1,6.5,30.12,SE,135,2.0,2.3,89,0.00,-SN,,0.00,WeatherDisplay:10.37,2013-01-26 10:47:00,
2013-01-26 05:52:00,9.1,6.5,30.12,SE,135,1.7,2.2,89,0.00,-SN,,0.00,WeatherDisplay:10.37,2013-01-26 10:52:00,
2013-01-26 05:57:00,9.3,6.7,30.12,SE,135,2.2,2.3,89,0.00,-SN,,0.00,WeatherDisplay:10.37,2013-01-26 10:57:00,
2013-01-26 06:02:00,9.3,6.7,30.12,SE,135,1.7,2.3,89,0.00,-SN,,0.00,WeatherDisplay:10.37,2013-01-26 11:02:00,
2013-01-26 06:07:00,9.3,7.0,30.12,SE,135,0.0,0.0,90,0.00,-SN,,0.00,WeatherDisplay:10.37,2013-01-26 11:07:00,
2013-01-26 06:12:00,9.5,7.2,30.12,SE,135,0.0,0.0,90,0.00,OVC,,0.00,WeatherDisplay:10.37,2013-01-26 11:12:00,
2013-01-26 06:17:00,9.5,7.2,30.13,SE,135,0.0,0.0,90,0.00,OVC,,0.00,WeatherDisplay:10.37,2013-01-26 11:17:00,
2013-01-26 06:22:00,9.5,6.9,30.13,SE,135,0.0,0.0,89,0.00,OVC,,0.00,WeatherDisplay:10.37,2013-01-26 11:22:00,
2013-01-26 06:27:00,9.5,6.9,30.14,SE,135,0.0,0.0,89,0.00,OVC,,0.00,WeatherDisplay:10.37,2013-01-26 11:27:00,
2013-01-26 06:32:00,9.5,7.2,30.14,ESE,112,1.9,2.3,90,0.00,OVC,,0.00,WeatherDisplay:10.37,2013-01-26 11:32:00,
2013-01-26 06:37:00,9.7,7.4,30.14,SE,135,1.8,2.3,90,0.00,OVC,,0.00,WeatherDisplay:10.37,2013-01-26 11:37:00,
2013-01-26 06:42:00,9.7,7.4,30.14,ESE,112,1.7,2.3,90,0.00,OVC,,0.00,WeatherDisplay:10.37,2013-01-26 11:42:00,
2013-01-26 06:47:00,9.9,7.6,30.14,ESE,112,1.7,3.5,90,0.00,OVC,,0.00,WeatherDisplay:10.37,2013-01-26 11:47:00,
2013-01-26 06:52:00,9.9,7.6,30.14,ESE,112,1.7,2.2,90,0.00,OVC,,0.00,WeatherDisplay:10.37,2013-01-26 11:52:00,
2013-01-26 06:57:00,9.9,7.6,30.14,ESE,112,1.7,1.7,90,0.00,OVC,,0.00,WeatherDisplay:10.37,2013-01-26 11:57:00,
2013-01-26 07:02:00,9.9,7.6,30.14,SE,135,2.2,2.3,90,0.00,OVC,,0.00,WeatherDisplay:10.37,2013-01-26 12:02:00,
2013-01-26 07:07:00,9.9,7.3,30.14,SSE,158,2.0,2.3,89,0.00,OVC,,0.00,WeatherDisplay:10.37,2013-01-26 12:07:00,
2013-01-26 07:12:00,9.9,7.3,30.14,ESE,112,1.8,2.3,89,0.00,OVC,,0.00,WeatherDisplay:10.37,2013-01-26 12:12:00,
2013-01-26 07:17:00,9.9,7.3,30.14,SSE,158,2.4,2.4,89,0.00,OVC,,0.00,WeatherDisplay:10.37,2013-01-26 12:17:00,
2013-01-26 07:22:00,9.9,7.3,30.14,ESE,112,2.4,2.4,89,0.00,OVC,,0.00,WeatherDisplay:10.37,2013-01-26 12:22:00,
2013-01-26 07:27:00,9.9,7.3,30.13,SSE,158,2.7,3.5,89,0.00,OVC,,0.00,WeatherDisplay:10.37,2013-01-26 12:27:00,
2013-01-26 07:32:00,9.9,7.3,30.13,SSE,158,2.4,3.5,89,0.00,OVC,,0.00,WeatherDisplay:10.37,2013-01-26 12:32:00,
2013-01-26 07:37:00,10.0,7.4,30.13,SSE,158,2.0,2.3,89,0.00,OVC,,0.00,WeatherDisplay:10.37,2013-01-26 12:37:00,
2013-01-26 07:42:00,10.0,7.4,30.14,SSE,158,0.7,1.7,89,0.00,OVC,,0.00,WeatherDisplay:10.37,2013-01-26 12:42:00,
2013-01-26 07:47:00,10.0,7.4,30.14,SSE,158,1.7,1.7,89,0.00,OVC,,0.00,WeatherDisplay:10.37,2013-01-26 12:47:00,
2013-01-26 07:52:00,10.0,7.4,30.14,SSE,158,0.5,1.1,89,0.00,OVC,,0.00,WeatherDisplay:10.37,2013-01-26 12:52:00,
2013-01-26 07:58:00,9.9,7.3,30.14,SSE,158,0.0,0.0,89,0.00,OVC,,0.00,WeatherDisplay:10.37,2013-01-26 12:58:00,
2013-01-26 08:03:00,9.7,7.1,30.15,SSE,158,0.0,0.0,89,0.00,OVC,,0.00,WeatherDisplay:10.37,2013-01-26 13:03:00,
2013-01-26 08:08:00,9.5,6.9,30.15,SSE,158,0.0,0.0,89,0.00,OVC,,0.00,WeatherDisplay:10.37,2013-01-26 13:08:00,
2013-01-26 08:13:00,9.3,6.5,30.15,SSE,158,0.0,0.0,88,0.00,BKN,,0.00,WeatherDisplay:10.37,2013-01-26 13:13:00,
2013-01-26 08:18:00,9.5,6.9,30.16,ESE,112,0.0,0.0,89,0.00,BKN,,0.00,WeatherDisplay:10.37,2013-01-26 13:18:00,
2013-01-26 08:23:00,9.9,7.3,30.16,ESE,112,0.0,0.0,89,0.00,BKN,,0.00,WeatherDisplay:10.37,2013-01-26 13:23:00,
2013-01-26 08:28:00,11.1,8.5,30.16,SSE,158,0.0,0.0,89,0.00,BKN,,0.00,WeatherDisplay:10.37,2013-01-26 13:28:00,
2013-01-26 08:33:00,11.8,8.9,30.16,ESE,112,1.7,1.7,88,0.00,BKN,,0.00,WeatherDisplay:10.37,2013-01-26 13:33:00,
2013-01-26 08:38:00,12.2,9.1,30.16,ESE,112,0.0,1.1,87,0.00,BKN,,0.00,WeatherDisplay:10.37,2013-01-26 13:38:00,
2013-01-26 08:43:00,13.3,9.4,30.16,SSE,158,0.0,0.0,84,0.00,BKN,,0.00,WeatherDisplay:10.37,2013-01-26 13:43:00,
2013-01-26 08:48:00,13.5,9.3,30.16,SSE,158,0.0,0.0,83,0.00,BKN,,0.00,WeatherDisplay:10.37,2013-01-26 13:48:00,
2013-01-26 08:53:00,14.5,10.0,30.17,SE,135,0.0,0.0,82,0.00,BKN,,0.00,WeatherDisplay:10.37,2013-01-26 13:53:00,
2013-01-26 08:58:00,14.7,9.9,30.17,South,180,2.0,2.3,81,0.00,BKN,,0.00,WeatherDisplay:10.37,2013-01-26 13:58:00,
2013-01-26 09:03:00,15.1,10.0,30.17,SSE,158,1.7,1.7,80,0.00,OVC,,0.00,WeatherDisplay:10.37,2013-01-26 14:03:00,
2013-01-26 09:08:00,15.8,10.4,30.17,South,180,2.1,2.3,79,0.00,OVC,,0.00,WeatherDisplay:10.37,2013-01-26 14:08:00,
2013-01-26 09:13:00,16.0,10.6,30.17,South,180,1.8,2.3,79,0.00,OVC,,0.00,WeatherDisplay:10.37,2013-01-26 14:13:00,
2013-01-26 09:18:00,16.9,11.2,30.16,SE,135,1.9,2.3,78,0.00,OVC,,0.00,WeatherDisplay:10.37,2013-01-26 14:18:00,
2013-01-26 09:23:00,17.2,11.2,30.16,WSW,248,1.9,2.7,77,0.00,OVC,,0.00,WeatherDisplay:10.37,2013-01-26 14:23:00,
2013-01-26 09:28:00,18.0,11.7,30.17,ESE,112,0.0,0.0,76,0.00,OVC,,0.00,WeatherDisplay:10.37,2013-01-26 14:28:00,
2013-01-26 09:33:00,18.7,11.8,30.17,SSE,158,1.7,2.3,74,0.00,OVC,,0.00,WeatherDisplay:10.37,2013-01-26 14:33:00,
2013-01-26 09:38:00,19.8,12.5,30.17,SSW,202,2.5,3.5,73,0.00,OVC,,0.00,WeatherDisplay:10.37,2013-01-26 14:38:00,
2013-01-26 09:43:00,19.8,12.2,30.17,West,270,0.3,1.1,72,0.00,OVC,,0.00,WeatherDisplay:10.37,2013-01-26 14:43:00,
2013-01-26 09:48:00,20.5,13.2,30.17,SW,225,0.0,0.0,73,0.00,OVC,,0.00,WeatherDisplay:10.37,2013-01-26 14:48:00,
2013-01-26 09:53:00,21.9,13.3,30.17,SW,225,0.0,0.0,69,0.00,OVC,,0.00,WeatherDisplay:10.37,2013-01-26 14:53:00,
2013-01-26 09:58:00,22.5,14.2,30.17,SSW,202,0.0,0.0,70,0.00,OVC,,0.00,WeatherDisplay:10.37,2013-01-26 14:58:00,
2013-01-26 10:03:00,23.5,14.5,30.17,WNW,292,2.0,2.3,68,0.00,OVC,,0.00,WeatherDisplay:10.37,2013-01-26 15:03:00,
2013-01-26 10:08:00,23.7,14.0,30.17,West,270,2.5,2.7,66,0.00,OVC,,0.00,WeatherDisplay:10.37,2013-01-26 15:08:00,
2013-01-26 10:13:00,23.9,14.2,30.17,West,270,0.9,1.1,66,0.00,OVC,,0.00,WeatherDisplay:10.37,2013-01-26 15:13:00,
2013-01-26 10:18:00,25.5,14.6,30.17,West,270,0.0,0.0,63,0.00,OVC,,0.00,WeatherDisplay:10.37,2013-01-26 15:18:00,
2013-01-26 10:23:00,24.8,14.0,30.17,SW,225,2.3,2.3,63,0.00,BKN,,0.00,WeatherDisplay:10.37,2013-01-26 15:23:00,
2013-01-26 10:28:00,25.3,14.1,30.18,SW,225,1.9,2.3,62,0.00,BKN,,0.00,WeatherDisplay:10.37,2013-01-26 15:28:00,
2013-01-26 10:33:00,26.6,14.6,30.18,West,270,2.1,2.3,60,0.00,BKN,,0.00,WeatherDisplay:10.37,2013-01-26 15:33:00,
2013-01-26 10:38:00,26.4,13.6,30.18,SSW,202,2.2,2.3,58,0.00,BKN,,0.00,WeatherDisplay:10.37,2013-01-26 15:38:00,
2013-01-26 10:43:00,25.9,13.1,30.18,West,270,0.0,0.0,58,0.00,BKN,,0.00,WeatherDisplay:10.37,2013-01-26 15:43:00,
2013-01-26 10:48:00,29.3,13.8,30.18,West,270,2.3,2.7,52,0.00,BKN,,0.00,WeatherDisplay:10.37,2013-01-26 15:48:00,
2013-01-26 10:53:00,26.6,13.0,30.18,WSW,248,1.3,2.7,56,0.00,BKN,,0.00,WeatherDisplay:10.37,2013-01-26 15:53:00,
2013-01-26 10:58:00,28.8,12.9,30.18,WSW,248,1.6,2.7,51,0.00,BKN,,0.00,WeatherDisplay:10.37,2013-01-26 15:58:00,
2013-01-26 11:03:00,29.3,12.5,30.18,WSW,248,0.6,2.3,49,0.00,BKN,,0.00,WeatherDisplay:10.37,2013-01-26 16:03:00,
2013-01-26 11:08:00,30.2,12.8,30.18,West,270,0.1,1.1,48,0.00,BKN,,0.00,WeatherDisplay:10.37,2013-01-26 16:08:00,
2013-01-26 11:13:00,31.8,12.8,30.18,ESE,112,1.7,1.7,45,0.00,BKN,,0.00,WeatherDisplay:10.37,2013-01-26 16:13:00,
2013-01-26 11:18:00,30.4,12.5,30.19,SSW,202,2.1,2.3,47,0.00,BKN,,0.00,WeatherDisplay:10.37,2013-01-26 16:18:00,
2013-01-26 11:23:00,28.4,11.6,30.19,WSW,248,1.8,2.3,49,0.00,BKN,,0.00,WeatherDisplay:10.37,2013-01-26 16:23:00,
2013-01-26 11:28:00,29.3,12.0,30.20,WNW,292,0.8,1.1,48,0.00,BKN,,0.00,WeatherDisplay:10.37,2013-01-26 16:28:00,
2013-01-26 11:33:00,27.3,11.5,30.20,West,270,1.9,3.5,51,0.00,BKN,,0.00,WeatherDisplay:10.37,2013-01-26 16:33:00,
2013-01-26 11:38:00,29.7,11.9,30.20,NNW,338,2.3,2.7,47,0.00,BKN,,0.00,WeatherDisplay:10.37,2013-01-26 16:38:00,
2013-01-26 11:43:00,30.0,12.7,30.20,SSW,202,0.0,0.0,48,0.00,BKN,,0.00,WeatherDisplay:10.37,2013-01-26 16:43:00,
2013-01-26 11:48:00,29.8,12.5,30.20,NNW,338,2.5,2.7,48,0.00,BKN,,0.00,WeatherDisplay:10.37,2013-01-26 16:48:00,
2013-01-26 11:53:00,29.8,8.4,30.21,WNW,292,2.1,3.2,40,0.00,BKN,,0.00,WeatherDisplay:10.37,2013-01-26 16:53:00,
2013-01-26 11:58:00,29.8,8.9,30.21,SW,225,2.3,2.3,41,0.00,BKN,,0.00,WeatherDisplay:10.37,2013-01-26 16:58:00,
2013-01-26 12:03:00,30.7,10.3,30.21,WSW,248,2.8,3.5,42,0.00,BKN,,0.00,WeatherDisplay:10.37,2013-01-26 17:03:00,
2013-01-26 12:08:00,30.6,11.2,30.21,South,180,2.2,3.5,44,0.00,BKN,,0.00,WeatherDisplay:10.37,2013-01-26 17:08:00,
2013-01-26 12:13:00,31.5,11.0,30.21,SSW,202,1.8,2.3,42,0.00,BKN,,0.00,WeatherDisplay:10.37,2013-01-26 17:13:00,
2013-01-26 12:18:00,31.3,11.4,30.21,West,270,2.8,3.5,43,0.00,BKN,,0.00,WeatherDisplay:10.37,2013-01-26 17:18:00,
2013-01-26 12:23:00,29.5,10.7,30.21,SSW,202,2.6,3.5,45,0.00,BKN,,0.00,WeatherDisplay:10.37,2013-01-26 17:23:00,
2013-01-26 12:28:00,29.3,11.5,30.21,East,90,2.0,3.5,47,0.00,BKN,,0.00,WeatherDisplay:10.37,2013-01-26 17:28:00,
2013-01-26 12:33:00,28.4,10.7,30.21,SSE,158,2.7,2.7,47,0.00,BKN,,0.00,WeatherDisplay:10.37,2013-01-26 17:33:00,
2013-01-26 12:38:00,29.5,11.2,30.21,West,270,1.8,2.3,46,0.00,BKN,,0.00,WeatherDisplay:10.37,2013-01-26 17:38:00,
2013-01-26 12:43:00,30.9,11.5,30.21,SW,225,2.3,2.3,44,0.00,BKN,,0.00,WeatherDisplay:10.37,2013-01-26 17:43:00,
2013-01-26 12:48:00,32.2,11.6,30.21,WSW,248,2.1,2.7,42,0.00,BKN,,0.00,WeatherDisplay:10.37,2013-01-26 17:48:00,
2013-01-26 12:53:00,31.6,12.2,30.21,South,180,0.9,1.1,44,0.00,BKN,,0.00,WeatherDisplay:10.37,2013-01-26 17:53:00,
2013-01-26 12:58:00,30.6,11.7,30.21,South,180,2.0,2.3,45,0.00,BKN,,0.00,WeatherDisplay:10.37,2013-01-26 17:58:00,
2013-01-26 13:03:00,32.2,12.2,30.22,ESE,112,0.1,1.7,43,0.00,BKN,,0.00,WeatherDisplay:10.37,2013-01-26 18:03:00,
2013-01-26 13:08:00,31.1,12.2,30.22,West,270,0.1,1.7,45,0.00,BKN,,0.00,WeatherDisplay:10.37,2013-01-26 18:08:00,
2013-01-26 13:13:00,31.5,11.5,30.22,WSW,248,2.6,3.5,43,0.00,OVC,,0.00,WeatherDisplay:10.37,2013-01-26 18:13:00,
2013-01-26 13:18:00,31.1,11.2,30.21,SW,225,1.8,2.7,43,0.00,OVC,,0.00,WeatherDisplay:10.37,2013-01-26 18:18:00,
2013-01-26 13:23:00,28.8,11.1,30.21,WSW,248,4.1,4.6,47,0.00,OVC,,0.00,WeatherDisplay:10.37,2013-01-26 18:23:00,
2013-01-26 13:28:00,30.0,10.7,30.22,North,360,2.2,2.7,44,0.00,OVC,,0.00,WeatherDisplay:10.37,2013-01-26 18:28:00,
2013-01-26 13:33:00,32.4,11.8,30.22,SSW,202,0.0,0.0,42,0.00,OVC,,0.00,WeatherDisplay:10.37,2013-01-26 18:33:00,
2013-01-26 13:38:00,30.6,11.2,30.22,West,270,3.1,4.2,44,0.00,OVC,,0.00,WeatherDisplay:10.37,2013-01-26 18:38:00,
2013-01-26 13:43:00,30.7,11.8,30.22,West,270,2.5,2.7,45,0.00,OVC,,0.00,WeatherDisplay:10.37,2013-01-26 18:43:00,
2013-01-26 13:48:00,30.6,11.7,30.22,West,270,2.3,2.3,45,0.00,OVC,,0.00,WeatherDisplay:10.37,2013-01-26 18:48:00,
2013-01-26 13:53:00,31.6,11.6,30.22,WSW,248,1.8,2.3,43,0.00,OVC,,0.00,WeatherDisplay:10.37,2013-01-26 18:53:00,
2013-01-26 13:58:00,33.4,12.2,30.22,SSE,158,1.2,1.2,41,0.00,OVC,,0.00,WeatherDisplay:10.37,2013-01-26 18:58:00,
2013-01-26 14:03:00,32.5,11.4,30.22,WSW,248,2.2,2.3,41,0.00,OVC,,0.00,WeatherDisplay:10.37,2013-01-26 19:03:00,
2013-01-26 14:08:00,31.1,12.2,30.22,West,270,2.1,3.5,45,0.00,OVC,,0.00,WeatherDisplay:10.37,2013-01-26 19:08:00,
2013-01-26 14:13:00,31.3,11.4,30.22,WSW,248,1.1,2.3,43,0.00,OVC,,0.00,WeatherDisplay:10.37,2013-01-26 19:13:00,
2013-01-26 14:18:00,31.3,11.9,30.22,West,270,1.5,2.2,44,0.00,OVC,,0.00,WeatherDisplay:10.37,2013-01-26 19:18:00,
2013-01-26 14:23:00,30.6,12.2,30.22,West,270,2.2,3.5,46,0.00,OVC,,0.00,WeatherDisplay:10.37,2013-01-26 19:23:00,
2013-01-26 14:28:00,30.7,11.8,30.22,West,270,2.0,2.7,45,0.00,OVC,,0.00,WeatherDisplay:10.37,2013-01-26 19:28:00,
2013-01-26 14:33:00,30.7,12.3,30.22,SW,225,2.0,2.3,46,0.00,OVC,,0.00,WeatherDisplay:10.37,2013-01-26 19:33:00,
2013-01-26 14:38:00,30.2,11.9,30.22,SSW,202,1.6,2.3,46,0.00,OVC,,0.00,WeatherDisplay:10.37,2013-01-26 19:38:00,
2013-01-26 14:43:00,29.5,11.7,30.23,South,180,0.6,1.1,47,0.00,BKN,,0.00,WeatherDisplay:10.37,2013-01-26 19:43:00,
2013-01-26 14:48:00,31.5,12.1,30.23,NNW,338,0.8,1.1,44,0.00,BKN,,0.00,WeatherDisplay:10.37,2013-01-26 19:48:00,
2013-01-26 14:53:00,30.9,11.5,30.24,West,270,1.2,2.7,44,0.00,BKN,,0.00,WeatherDisplay:10.37,2013-01-26 19:53:00,
2013-01-26 14:58:00,30.2,11.4,30.24,East,90,0.0,1.1,45,0.00,BKN,,0.00,WeatherDisplay:10.37,2013-01-26 19:58:00,
2013-01-26 15:03:00,29.7,11.9,30.24,South,180,0.0,0.0,47,0.00,BKN,,0.00,WeatherDisplay:10.37,2013-01-26 20:03:00,
2013-01-26 15:08:00,29.5,12.2,30.24,NW,315,3.0,3.5,48,0.00,BKN,,0.00,WeatherDisplay:10.37,2013-01-26 20:08:00,
2013-01-26 15:13:00,29.1,12.3,30.24,WSW,248,2.7,2.7,49,0.00,BKN,,0.00,WeatherDisplay:10.37,2013-01-26 20:13:00,
2013-01-26 15:18:00,28.8,12.0,30.24,South,180,2.0,2.3,49,0.00,BKN,,0.00,WeatherDisplay:10.37,2013-01-26 20:18:00,
2013-01-26 15:23:00,29.1,11.8,30.24,WSW,248,1.7,2.3,48,0.00,BKN,,0.00,WeatherDisplay:10.37,2013-01-26 20:23:00,
2013-01-26 15:28:00,29.5,12.7,30.24,West,270,0.1,1.7,49,0.00,BKN,,0.00,WeatherDisplay:10.37,2013-01-26 20:28:00,
2013-01-26 15:33:00,28.6,11.8,30.24,SSE,158,2.6,3.7,49,0.00,BKN,,0.00,WeatherDisplay:10.37,2013-01-26 20:33:00,
2013-01-26 15:38:00,27.7,11.9,30.24,SW,225,3.4,3.5,51,0.00,BKN,,0.00,WeatherDisplay:10.37,2013-01-26 20:38:00,
2013-01-26 15:43:00,28.0,12.6,30.25,WSW,248,2.5,2.7,52,0.00,BKN,,0.00,WeatherDisplay:10.37,2013-01-26 20:43:00,
2013-01-26 15:48:00,27.5,12.2,30.25,West,270,3.4,4.6,52,0.00,BKN,,0.00,WeatherDisplay:10.37,2013-01-26 20:48:00,
2013-01-26 15:53:00,27.1,11.8,30.25,WNW,292,2.2,2.3,52,0.00,BKN,,0.00,WeatherDisplay:10.37,2013-01-26 20:53:00,
2013-01-26 15:58:00,27.0,12.1,30.25,South,180,1.6,2.2,53,0.00,BKN,,0.00,WeatherDisplay:10.37,2013-01-26 20:58:00,
2013-01-26 16:03:00,26.6,11.7,30.26,WSW,248,2.0,2.3,53,0.00,BKN,,0.00,WeatherDisplay:10.37,2013-01-26 21:03:00,
2013-01-26 16:08:00,26.2,11.4,30.26,West,270,3.5,3.7,53,0.00,BKN,,0.00,WeatherDisplay:10.37,2013-01-26 21:08:00,
2013-01-26 16:13:00,25.9,11.5,30.26,SW,225,3.0,3.7,54,0.00,BKN,,0.00,WeatherDisplay:10.37,2013-01-26 21:13:00,
2013-01-26 16:18:00,25.3,11.4,30.25,West,270,1.7,3.5,55,0.00,BKN,,0.00,WeatherDisplay:10.37,2013-01-26 21:18:00,
2013-01-26 16:23:00,25.7,11.7,30.25,WSW,248,2.8,3.5,55,0.00,BKN,,0.00,WeatherDisplay:10.37,2013-01-26 21:23:00,
2013-01-26 16:28:00,25.5,11.6,30.26,West,270,1.6,2.3,55,0.00,BKN,,0.00,WeatherDisplay:10.37,2013-01-26 21:28:00,
2013-01-26 16:33:00,26.2,11.8,30.26,West,270,2.8,3.5,54,0.00,BKN,,0.00,WeatherDisplay:10.37,2013-01-26 21:33:00,
2013-01-26 16:38:00,26.2,11.4,30.26,SW,225,2.6,3.7,53,0.00,BKN,,0.00,WeatherDisplay:10.37,2013-01-26 21:38:00,
2013-01-26 16:43:00,26.1,11.3,30.26,SW,225,2.3,2.7,53,0.00,BKN,,0.00,WeatherDisplay:10.37,2013-01-26 21:43:00,
2013-01-26 16:48:00,25.7,11.3,30.26,SW,225,3.8,4.6,54,0.00,BKN,,0.00,WeatherDisplay:10.37,2013-01-26 21:48:00,
2013-01-26 16:53:00,25.2,10.9,30.27,West,270,2.2,2.3,54,0.00,BKN,,0.00,WeatherDisplay:10.37,2013-01-26 21:53:00,
2013-01-26 16:58:00,24.3,10.8,30.27,West,270,2.3,2.3,56,0.00,BKN,,0.00,WeatherDisplay:10.37,2013-01-26 21:58:00,
2013-01-26 17:03:00,23.4,10.8,30.27,SSW,202,1.9,2.7,58,0.00,BKN,,0.00,WeatherDisplay:10.37,2013-01-26 22:03:00,
2013-01-26 17:08:00,22.6,10.4,30.27,SW,225,2.0,2.3,59,0.00,BKN,,0.00,WeatherDisplay:10.37,2013-01-26 22:08:00,
2013-01-26 17:13:00,22.3,10.9,30.27,SW,225,2.7,3.7,61,0.00,SCT,,0.00,WeatherDisplay:10.37,2013-01-26 22:13:00,
2013-01-26 17:18:00,21.9,10.9,30.27,West,270,2.2,2.3,62,0.00,SCT,,0.00,WeatherDisplay:10.37,2013-01-26 22:18:00,
2013-01-26 17:23:00,21.4,10.7,30.27,SW,225,2.2,2.3,63,0.00,SCT,,0.00,WeatherDisplay:10.37,2013-01-26 22:23:00,
2013-01-26 17:28:00,21.0,10.7,30.28,SW,225,1.7,1.7,64,0.00,SCT,,0.00,WeatherDisplay:10.37,2013-01-26 22:28:00,
2013-01-26 17:33:00,20.8,10.9,30.28,WSW,248,1.1,1.7,65,0.00,SCT,,0.00,WeatherDisplay:10.37,2013-01-26 22:33:00,
2013-01-26 17:38:00,20.8,11.2,30.28,South,180,1.9,2.3,66,0.00,SCT,,0.00,WeatherDisplay:10.37,2013-01-26 22:38:00,
2013-01-26 17:43:00,21.4,11.8,30.28,West,270,3.4,4.6,66,0.00,SCT,,0.00,WeatherDisplay:10.37,2013-01-26 22:43:00,
2013-01-26 17:48:00,21.4,11.8,30.28,West,270,2.6,2.7,66,0.00,SCT,,0.00,WeatherDisplay:10.37,2013-01-26 22:48:00,
2013-01-26 17:53:00,21.4,12.1,30.29,SW,225,2.3,2.3,67,0.00,SCT,,0.00,WeatherDisplay:10.37,2013-01-26 22:53:00,
2013-01-26 17:58:00,21.0,11.8,30.29,South,180,1.7,2.3,67,0.00,SCT,,0.00,WeatherDisplay:10.37,2013-01-26 22:58:00,
2013-01-26 18:03:00,20.8,11.9,30.29,WSW,248,1.8,2.3,68,0.00,SCT,,0.00,WeatherDisplay:10.37,2013-01-26 23:03:00,
2013-01-26 18:08:00,20.7,12.1,30.29,WSW,248,2.4,2.4,69,0.00,SCT,,0.00,WeatherDisplay:10.37,2013-01-26 23:08:00,
2013-01-26 18:13:00,20.5,12.3,30.29,WSW,248,1.6,2.3,70,0.00,SCT,,0.00,WeatherDisplay:10.37,2013-01-26 23:13:00,
2013-01-26 18:18:00,20.5,12.3,30.29,West,270,1.5,1.7,70,0.00,SCT,,0.00,WeatherDisplay:10.37,2013-01-26 23:18:00,
2013-01-26 18:23:00,20.3,12.4,30.29,West,270,1.9,2.3,71,0.00,SCT,,0.00,WeatherDisplay:10.37,2013-01-26 23:23:00,
2013-01-26 18:28:00,19.9,12.3,30.30,West,270,1.5,2.3,72,0.00,SCT,,0.00,WeatherDisplay:10.37,2013-01-26 23:28:00,
2013-01-26 18:33:00,20.1,12.5,30.30,SSW,202,2.7,3.5,72,0.00,SCT,,0.00,WeatherDisplay:10.37,2013-01-26 23:33:00,
2013-01-26 18:38:00,20.1,12.5,30.30,West,270,2.2,2.3,72,0.00,SCT,,0.00,WeatherDisplay:10.37,2013-01-26 23:38:00,
2013-01-26 18:43:00,19.9,12.6,30.30,WSW,248,0.7,2.3,73,0.00,SCT,,0.00,WeatherDisplay:10.37,2013-01-26 23:43:00,
2013-01-26 18:48:00,19.8,12.5,30.30,WSW,248,2.3,2.3,73,0.00,SCT,,0.00,WeatherDisplay:10.37,2013-01-26 23:48:00,
2013-01-26 18:53:00,19.4,12.5,30.30,SW,225,1.7,2.3,74,0.00,SCT,,0.00,WeatherDisplay:10.37,2013-01-26 23:53:00,
2013-01-26 18:58:00,18.9,12.3,30.30,West,270,1.1,1.1,75,0.00,SCT,,0.00,WeatherDisplay:10.37,2013-01-26 23:58:00,
2013-01-26 19:03:00,18.5,12.2,30.30,West,270,1.8,2.3,76,0.00,SCT,,0.00,WeatherDisplay:10.37,2013-01-27 00:03:00,
2013-01-26 19:08:00,18.5,12.2,30.30,West,270,1.5,1.5,76,0.00,SCT,,0.00,WeatherDisplay:10.37,2013-01-27 00:08:00,
2013-01-26 19:13:00,18.3,12.3,30.30,West,270,1.7,1.7,77,0.00,SCT,,0.00,WeatherDisplay:10.37,2013-01-27 00:13:00,
2013-01-26 19:18:00,18.0,12.3,30.31,West,270,2.3,2.3,78,0.00,SCT,,0.00,WeatherDisplay:10.37,2013-01-27 00:18:00,
2013-01-26 19:23:00,18.0,12.3,30.31,WSW,248,1.1,2.3,78,0.00,SCT,,0.00,WeatherDisplay:10.37,2013-01-27 00:23:00,
2013-01-26 19:28:00,17.6,12.2,30.32,WSW,248,1.7,1.7,79,0.00,SCT,,0.00,WeatherDisplay:10.37,2013-01-27 00:28:00,
2013-01-26 19:33:00,17.2,11.8,30.32,WSW,248,1.4,1.4,79,0.00,SCT,,0.00,WeatherDisplay:10.37,2013-01-27 00:33:00,
2013-01-26 19:38:00,17.1,12.0,30.32,WSW,248,1.0,1.1,80,0.00,SCT,,0.00,WeatherDisplay:10.37,2013-01-27 00:38:00,
2013-01-26 19:43:00,16.5,11.4,30.32,WSW,248,0.0,0.0,80,0.00,SCT,,0.00,WeatherDisplay:10.37,2013-01-27 00:43:00,
2013-01-26 19:48:00,16.7,11.9,30.32,WSW,248,0.2,1.1,81,0.00,SCT,,0.00,WeatherDisplay:10.37,2013-01-27 00:48:00,
2013-01-26 19:53:00,16.9,12.1,30.32,West,270,2.3,3.5,81,0.00,SCT,,0.00,WeatherDisplay:10.37,2013-01-27 00:53:00,
2013-01-26 19:58:00,16.9,12.1,30.32,WSW,248,1.7,2.3,81,0.00,SCT,,0.00,WeatherDisplay:10.37,2013-01-27 00:58:00,
2013-01-26 20:03:00,16.9,12.1,30.33,West,270,2.3,2.7,81,0.00,FEW,,0.00,WeatherDisplay:10.37,2013-01-27 01:03:00,
2013-01-26 20:08:00,16.9,12.1,30.33,WSW,248,2.5,3.5,81,0.00,FEW,,0.00,WeatherDisplay:10.37,2013-01-27 01:08:00,
2013-01-26 20:13:00,16.9,12.1,30.33,West,270,2.2,2.3,81,0.00,FEW,,0.00,WeatherDisplay:10.37,2013-01-27 01:13:00,
2013-01-26 20:18:00,16.7,11.9,30.33,West,270,2.2,2.3,81,0.00,FEW,,0.00,WeatherDisplay:10.37,2013-01-27 01:18:00,
2013-01-26 20:23:00,16.5,11.7,30.33,South,180,2.1,2.3,81,0.00,FEW,,0.00,WeatherDisplay:10.37,2013-01-27 01:23:00,
2013-01-26 20:28:00,16.7,11.9,30.33,West,270,2.5,3.5,81,0.00,FEW,,0.00,WeatherDisplay:10.37,2013-01-27 01:28:00,
2013-01-26 20:33:00,16.7,11.9,30.33,SSW,202,2.3,3.7,81,0.00,FEW,,0.00,WeatherDisplay:10.37,2013-01-27 01:33:00,
2013-01-26 20:38:00,16.7,11.9,30.33,WSW,248,2.1,2.3,81,0.00,FEW,,0.00,WeatherDisplay:10.37,2013-01-27 01:38:00,
2013-01-26 20:43:00,16.5,11.7,30.33,WSW,248,0.6,2.3,81,0.00,FEW,,0.00,WeatherDisplay:10.37,2013-01-27 01:43:00,
2013-01-26 20:48:00,16.2,11.7,30.33,West,270,1.1,2.3,82,0.00,FEW,,0.00,WeatherDisplay:10.37,2013-01-27 01:48:00,
2013-01-26 20:53:00,15.6,11.1,30.33,West,270,0.0,0.0,82,0.00,FEW,,0.00,WeatherDisplay:10.37,2013-01-27 01:53:00,
2013-01-26 20:58:00,15.1,10.9,30.33,West,270,0.1,1.1,83,0.00,FEW,,0.00,WeatherDisplay:10.37,2013-01-27 01:58:00,
2013-01-26 21:03:00,14.5,10.5,30.34,West,270,0.0,0.0,84,0.00,FEW,,0.00,WeatherDisplay:10.37,2013-01-27 02:03:00,
2013-01-26 21:08:00,14.2,10.3,30.34,West,270,0.0,0.0,84,0.00,FEW,,0.00,WeatherDisplay:10.37,2013-01-27 02:08:00,
2013-01-26 21:13:00,13.6,9.9,30.34,West,270,0.0,0.0,85,0.00,FEW,,0.00,WeatherDisplay:10.37,2013-01-27 02:13:00,
2013-01-26 21:18:00,13.3,9.6,30.34,West,270,0.0,0.0,85,0.00,FEW,,0.00,WeatherDisplay:10.37,2013-01-27 02:18:00,
2013-01-26 21:23:00,12.6,9.5,30.34,West,270,0.0,0.0,87,0.00,FEW,,0.00,WeatherDisplay:10.37,2013-01-27 02:23:00,
2013-01-26 21:28:00,12.2,9.3,30.35,West,270,0.0,0.0,88,0.00,FEW,,0.00,WeatherDisplay:10.37,2013-01-27 02:28:00,
2013-01-26 21:33:00,11.5,8.1,30.35,West,270,0.0,0.0,86,0.00,FEW,,0.00,WeatherDisplay:10.37,2013-01-27 02:33:00,
2013-01-26 21:38:00,10.9,7.3,30.35,West,270,0.0,0.0,85,0.00,FEW,,0.00,WeatherDisplay:10.37,2013-01-27 02:38:00,
2013-01-26 21:43:00,10.4,7.3,30.35,West,270,0.0,0.0,87,0.00,FEW,,0.00,WeatherDisplay:10.37,2013-01-27 02:43:00,
2013-01-26 21:48:00,10.4,7.6,30.35,West,270,0.0,0.0,88,0.00,FEW,,0.00,WeatherDisplay:10.37,2013-01-27 02:48:00,
2013-01-26 21:53:00,10.9,9.0,30.35,West,270,0.0,0.0,92,0.00,FEW,,0.00,WeatherDisplay:10.37,2013-01-27 02:53:00,
2013-01-26 21:58:00,10.8,8.9,30.35,West,270,0.0,0.0,92,0.00,FEW,,0.00,WeatherDisplay:10.37,2013-01-27 02:58:00,
2013-01-26 22:03:00,11.8,9.9,30.36,West,270,0.0,0.0,92,0.00,FEW,,0.00,WeatherDisplay:10.37,2013-01-27 03:03:00,
2013-01-26 22:08:00,12.6,10.5,30.36,West,270,0.0,0.0,91,0.00,FEW,,0.00,WeatherDisplay:10.37,2013-01-27 03:08:00,
2013-01-26 22:13:00,13.1,10.7,30.36,West,270,0.0,0.0,90,0.00,FEW,,0.00,WeatherDisplay:10.37,2013-01-27 03:13:00,
2013-01-26 22:18:00,12.9,10.5,30.36,West,270,0.0,0.0,90,0.00,FEW,,0.00,WeatherDisplay:10.37,2013-01-27 03:18:00,
2013-01-26 22:23:00,13.5,11.1,30.36,West,270,0.0,0.0,90,0.00,BKN,,0.00,WeatherDisplay:10.37,2013-01-27 03:23:00,
2013-01-26 22:28:00,14.0,11.6,30.36,West,270,0.9,1.1,90,0.00,BKN,,0.00,WeatherDisplay:10.37,2013-01-27 03:28:00,
2013-01-26 22:33:00,13.5,11.4,30.36,West,270,0.0,0.0,91,0.00,OVC,,0.00,WeatherDisplay:10.37,2013-01-27 03:33:00,
2013-01-26 22:38:00,13.8,10.9,30.37,West,270,2.0,2.3,88,0.00,OVC,,0.00,WeatherDisplay:10.37,2013-01-27 03:38:00,
2013-01-26 22:43:00,13.8,10.9,30.37,West,270,0.0,0.0,88,0.00,OVC,,0.00,WeatherDisplay:10.37,2013-01-27 03:43:00,
2013-01-26 22:48:00,14.0,11.1,30.37,West,270,0.0,0.0,88,0.00,OVC,,0.00,WeatherDisplay:10.37,2013-01-27 03:48:00,
2013-01-26 22:53:00,13.8,10.9,30.37,West,270,0.0,0.0,88,0.00,OVC,,0.00,WeatherDisplay:10.37,2013-01-27 03:53:00,
2013-01-26 22:58:00,14.2,11.6,30.37,SSE,158,0.0,0.0,89,0.00,OVC,,0.00,WeatherDisplay:10.37,2013-01-27 03:58:00,
2013-01-26 23:03:00,13.5,10.9,30.37,ESE,112,0.0,0.0,89,0.00,OVC,,0.00,WeatherDisplay:10.37,2013-01-27 04:03:00,
2013-01-26 23:08:00,13.3,10.7,30.37,South,180,0.0,0.0,89,0.00,OVC,,0.00,WeatherDisplay:10.37,2013-01-27 04:08:00,
2013-01-26 23:13:00,12.9,10.5,30.37,West,270,0.0,1.1,90,0.00,SCT,,0.00,WeatherDisplay:10.37,2013-01-27 04:13:00,
2013-01-26 23:18:00,12.9,10.5,30.38,West,270,0.0,0.0,90,0.00,SCT,,0.00,WeatherDisplay:10.37,2013-01-27 04:18:00,
2013-01-26 23:23:00,14.9,12.5,30.38,WNW,292,0.3,1.7,90,0.00,SCT,,0.00,WeatherDisplay:10.37,2013-01-27 04:23:00,
2013-01-26 23:28:00,14.0,11.6,30.38,West,270,2.0,2.3,90,0.00,SCT,,0.00,WeatherDisplay:10.37,2013-01-27 04:28:00,
2013-01-26 23:33:00,14.2,12.1,30.38,West,270,1.1,2.7,91,0.00,SCT,,0.00,WeatherDisplay:10.37,2013-01-27 04:33:00,
2013-01-26 23:38:00,14.4,12.5,30.38,West,270,0.5,2.3,92,0.00,SCT,,0.00,WeatherDisplay:10.37,2013-01-27 04:38:00,
2013-01-26 23:43:00,13.8,11.9,30.38,West,270,0.7,1.1,92,0.00,SCT,,0.00,WeatherDisplay:10.37,2013-01-27 04:43:00,
2013-01-26 23:48:00,13.6,11.7,30.38,West,270,0.9,1.7,92,0.00,SCT,,0.00,WeatherDisplay:10.37,2013-01-27 04:48:00,
2013-01-26 23:53:00,13.6,12.0,30.39,West,270,0.0,0.0,93,0.00,SCT,,0.00,WeatherDisplay:10.37,2013-01-27 04:53:00,
2013-01-26 23:58:00,13.6,12.0,30.39,WSW,248,0.0,0.0,93,0.00,SCT,,0.00,WeatherDisplay:10.37,2013-01-27 04:58:00,